Terminal Aerodrome Forecast
Issued by NWS Tiyan, Guam

Home | Current Version | Previous Version | Text Only | Print | Product List | Glossary On
Versions: 1 2 3 4 5 6 7 8 9 10 11 12 13 14
000
FTPQ31 PGUM 230207 AAA
TAFGUM
TAF AMD
PGUM 230207Z 2302/2406 12011KT P6SM VCSH FEW016 SCT040 BKN120
      TEMPO 2302/2304 12012G22KT 3SM +SHRA BKN016 OVC025
     FM230800 11008KT P6SM VCSH FEW018 SCT040 SCT120=

USA.gov is the U.S. government's official web portal to all federal, state and local government web resources and services.